createdAt,value
2018-12-22T00:00:06.869Z,31.8
2018-12-22T00:02:05.511Z,31.7
2018-12-22T00:04:05.260Z,31.8
2018-12-22T00:06:05.893Z,31.7
2018-12-22T00:08:05.190Z,31.7
2018-12-22T00:10:05.890Z,31.7
2018-12-22T00:12:05.629Z,31.7
2018-12-22T00:14:05.303Z,31.6
2018-12-22T00:16:05.987Z,31.7
2018-12-22T00:18:05.489Z,31.6
2018-12-22T00:20:05.353Z,31.7
2018-12-22T00:22:07.507Z,31.6
2018-12-22T00:24:07.779Z,31.7
2018-12-22T00:26:05.529Z,31.6
2018-12-22T00:28:05.193Z,31.7
2018-12-22T00:30:05.906Z,31.6
2018-12-22T00:32:05.656Z,31.7
2018-12-22T00:34:10.393Z,31.6
2018-12-22T00:36:10.109Z,31.5
2018-12-22T00:38:05.850Z,31.6
2018-12-22T00:40:05.603Z,31.7
2018-12-22T00:42:05.317Z,31.6
2018-12-22T00:44:05.026Z,31.5
2018-12-22T00:46:05.711Z,31.6
2018-12-22T00:48:13.445Z,31.6
2018-12-22T00:50:08.942Z,31.8
2018-12-22T00:52:06.626Z,31.6
2018-12-22T00:54:06.930Z,31.5
2018-12-22T00:56:05.437Z,31.5
2018-12-22T00:58:05.251Z,31.5
2018-12-22T01:00:05.100Z,31.6
2018-12-22T01:02:05.929Z,31.7
2018-12-22T01:04:13.221Z,31.6
2018-12-22T01:06:16.413Z,31.6
2018-12-22T01:08:10.193Z,31.6
2018-12-22T01:10:10.921Z,31.6
2018-12-22T01:12:05.622Z,31.6
2018-12-22T01:14:08.548Z,31.5
2018-12-22T01:16:05.429Z,31.5
2018-12-22T01:18:05.445Z,31.8
2018-12-22T01:20:05.977Z,31.5
2018-12-22T01:22:05.822Z,31.6
2018-12-22T01:24:05.537Z,31.6
2018-12-22T01:26:05.737Z,31.5
2018-12-22T01:28:05.529Z,31.6
2018-12-22T01:30:05.294Z,31.6
2018-12-22T01:32:05.600Z,31.6
2018-12-22T01:34:05.257Z,31.6
2018-12-22T01:36:06.089Z,31.5
2018-12-22T01:38:06.535Z,31.7
2018-12-22T01:40:07.915Z,31.5
2018-12-22T01:42:05.806Z,31.7
2018-12-22T01:44:06.028Z,31.6
2018-12-22T01:46:06.027Z,31.4
2018-12-22T01:48:05.247Z,31.6
2018-12-22T01:50:06.209Z,31.6
2018-12-22T01:52:05.935Z,31.7
2018-12-22T01:54:05.980Z,31.5
2018-12-22T01:56:05.740Z,31.7
2018-12-22T01:58:11.109Z,31.7
2018-12-22T02:00:08.360Z,31.8
2018-12-22T02:02:05.133Z,31.6
2018-12-22T02:04:05.811Z,31.6
2018-12-22T02:06:36.560Z,31.6
2018-12-22T02:08:05.476Z,31.6
2018-12-22T02:10:05.094Z,31.8
2018-12-22T02:12:05.793Z,31.6
2018-12-22T02:14:08.030Z,31.6
2018-12-22T02:16:05.741Z,31.6
2018-12-22T02:18:05.639Z,31.6
2018-12-22T02:20:12.898Z,31.5
2018-12-22T02:22:05.707Z,31.7
2018-12-22T02:24:05.421Z,31.5
2018-12-22T02:26:05.188Z,31.6
2018-12-22T02:28:05.838Z,31.6
2018-12-22T02:30:05.140Z,31.7
2018-12-22T02:32:05.917Z,31.7
2018-12-22T02:34:05.762Z,31.6
2018-12-22T02:36:08.025Z,31.7
2018-12-22T02:38:08.248Z,31.7
2018-12-22T02:40:05.992Z,31.7
2018-12-22T02:42:05.748Z,31.6
2018-12-22T02:44:05.467Z,31.7
2018-12-22T02:46:05.146Z,31.6
2018-12-22T02:48:05.976Z,31.7
2018-12-22T02:50:08.194Z,31.6
2018-12-22T02:52:06.038Z,31.6
2018-12-22T02:54:05.815Z,31.9
2018-12-22T02:56:05.491Z,31.5
2018-12-22T02:58:05.199Z,31.6
2018-12-22T03:00:05.974Z,31.5
2018-12-22T03:02:05.745Z,31.5
2018-12-22T03:04:06.001Z,31.8
2018-12-22T03:06:13.316Z,31.5
2018-12-22T03:08:05.993Z,31.5
2018-12-22T03:10:08.229Z,31.7
2018-12-22T03:12:05.960Z,31.6
2018-12-22T03:14:05.683Z,31.6
2018-12-22T03:16:05.340Z,31.6
2018-12-22T03:18:10.286Z,31.7
2018-12-22T03:20:05.946Z,31.6
2018-12-22T03:22:05.760Z,31.7
2018-12-22T03:24:05.495Z,31.6
2018-12-22T03:26:07.836Z,31.6
2018-12-22T03:28:05.120Z,31.7
2018-12-22T03:30:05.817Z,31.7
2018-12-22T03:32:08.005Z,31.8
2018-12-22T03:34:08.257Z,31.6
2018-12-22T03:36:07.990Z,31.8
2018-12-22T03:38:05.829Z,31.8
2018-12-22T03:40:05.600Z,31.8
2018-12-22T03:42:07.874Z,31.7
2018-12-22T03:44:10.186Z,31.8
2018-12-22T03:46:08.374Z,31.7
2018-12-22T03:48:05.099Z,31.7
2018-12-22T03:50:05.820Z,31.9
2018-12-22T03:52:05.000Z,31.8
2018-12-22T03:54:10.801Z,31.9
2018-12-22T03:56:05.560Z,31.9
2018-12-22T03:58:05.308Z,31.8
2018-12-22T04:00:11.072Z,32
2018-12-22T04:02:05.807Z,32
2018-12-22T04:04:05.531Z,32
2018-12-22T04:06:07.782Z,31.9
2018-12-22T04:08:05.510Z,32
2018-12-22T04:10:10.387Z,32.1
2018-12-22T04:12:05.228Z,32.1
2018-12-22T04:14:05.913Z,32.1
2018-12-22T04:16:05.585Z,32.1
2018-12-22T04:18:05.522Z,32.1
2018-12-22T04:20:05.268Z,32.1
2018-12-22T04:22:05.928Z,32.1
2018-12-22T04:24:07.670Z,32.2
2018-12-22T04:26:05.378Z,32.2
2018-12-22T04:28:05.047Z,32.2
2018-12-22T04:30:05.487Z,32.2
2018-12-22T04:32:05.362Z,32.3
2018-12-22T04:34:05.124Z,32.3
2018-12-22T04:36:10.923Z,32.2
2018-12-22T04:38:10.679Z,32.3
2018-12-22T04:40:07.899Z,32.5
2018-12-22T04:42:05.540Z,32.5
2018-12-22T04:44:05.267Z,32.5
2018-12-22T04:46:05.975Z,32.3
2018-12-22T04:48:05.804Z,32.3
2018-12-22T04:50:05.521Z,32.4
2018-12-22T04:52:05.214Z,32.3
2018-12-22T04:54:08.468Z,32.4
2018-12-22T04:56:05.108Z,32.4
2018-12-22T04:58:05.792Z,32.3
2018-12-22T05:00:05.046Z,32.6
2018-12-22T05:02:05.775Z,32.5
2018-12-22T05:04:05.442Z,32.5
2018-12-22T05:06:07.729Z,32.5
2018-12-22T05:08:07.947Z,32.3
2018-12-22T05:10:05.646Z,32.3
2018-12-22T05:12:08.532Z,32.2
2018-12-22T05:14:05.236Z,32.2
2018-12-22T05:16:05.943Z,32.5
2018-12-22T05:18:05.352Z,32.5
2018-12-22T05:20:05.036Z,32.5
2018-12-22T05:22:05.733Z,32.4
2018-12-22T05:24:05.448Z,32.4
2018-12-22T05:31:34.862Z,32.4
2018-12-22T05:41:09.347Z,32.4
2018-12-22T05:42:08.530Z,32.2
2018-12-22T05:44:05.863Z,32.4
2018-12-22T05:46:05.575Z,32.3
2018-12-22T05:48:07.756Z,32.4
2018-12-22T05:50:05.441Z,32.1
2018-12-22T05:52:05.206Z,32.3
2018-12-22T05:54:05.918Z,32.4
2018-12-22T05:56:05.718Z,32.4
2018-12-22T05:58:05.473Z,32.4
2018-12-22T06:00:05.672Z,32.1
2018-12-22T06:02:05.357Z,32.4
2018-12-22T06:04:05.072Z,32.1
2018-12-22T06:06:05.770Z,32.1
2018-12-22T06:08:05.990Z,32.1
2018-12-22T06:10:10.698Z,32
2018-12-22T06:12:05.737Z,32
2018-12-22T06:14:06.001Z,32
2018-12-22T06:16:05.234Z,32.1
2018-12-22T06:18:07.692Z,32
2018-12-22T06:20:05.935Z,32
2018-12-22T06:22:05.606Z,32
2018-12-22T06:24:12.837Z,32
2018-12-22T06:26:05.096Z,32
2018-12-22T06:28:05.759Z,32
2018-12-22T06:30:11.000Z,32
2018-12-22T06:32:05.655Z,31.9
2018-12-22T06:34:05.427Z,32
2018-12-22T06:36:05.097Z,32
2018-12-22T06:38:08.404Z,31.9
2018-12-22T06:40:05.087Z,32.1
2018-12-22T06:42:05.781Z,32
2018-12-22T06:44:07.998Z,32.2
2018-12-22T06:46:05.710Z,32.2
2018-12-22T06:48:05.421Z,31.9
2018-12-22T06:50:07.607Z,32
2018-12-22T06:52:05.285Z,32
2018-12-22T06:54:07.592Z,32.1
2018-12-22T06:56:05.286Z,32
2018-12-22T06:58:08.528Z,32.1
2018-12-22T07:00:05.379Z,32.1
2018-12-22T07:02:07.578Z,32
2018-12-22T07:04:08.260Z,32
2018-12-22T07:06:05.504Z,32
2018-12-22T07:08:05.169Z,32.1
2018-12-22T07:10:05.872Z,32.1
2018-12-22T07:12:05.594Z,32.1
2018-12-22T07:14:05.259Z,32
2018-12-22T07:16:07.739Z,32.1
2018-12-22T07:18:05.628Z,32.1
2018-12-22T07:20:07.860Z,32
2018-12-22T07:22:05.661Z,32
2018-12-22T07:24:05.404Z,32
2018-12-22T07:26:05.079Z,32.2
2018-12-22T07:28:08.357Z,32.1
2018-12-22T07:30:05.732Z,32.1
2018-12-22T07:32:05.422Z,32.1
2018-12-22T07:34:05.085Z,32.2
2018-12-22T07:36:05.780Z,32.3
2018-12-22T07:38:08.089Z,32.1
2018-12-22T07:40:05.807Z,32.1
2018-12-22T07:42:08.007Z,32.1
2018-12-22T07:44:05.192Z,32.1
2018-12-22T07:46:05.912Z,32.2
2018-12-22T07:48:05.567Z,32.3
2018-12-22T07:50:05.299Z,32.3
2018-12-22T07:52:06.036Z,32.1
2018-12-22T07:54:05.785Z,32.2
2018-12-22T07:56:05.561Z,32.1
2018-12-22T07:58:05.277Z,32.1
2018-12-22T08:00:05.959Z,32.2
2018-12-22T08:02:05.624Z,32.1
2018-12-22T08:04:05.388Z,32.1
2018-12-22T08:06:07.603Z,32
2018-12-22T08:08:05.246Z,32
2018-12-22T08:10:05.937Z,32
2018-12-22T08:12:05.689Z,32
2018-12-22T08:14:08.471Z,32
2018-12-22T08:16:05.194Z,32
2018-12-22T08:18:10.258Z,32.3
2018-12-22T08:20:05.461Z,32.3
2018-12-22T08:22:05.126Z,32.3
2018-12-22T08:24:05.940Z,32.3
2018-12-22T08:26:05.334Z,32.3
2018-12-22T08:28:13.174Z,32.3
2018-12-22T08:30:05.879Z,32.3
2018-12-22T08:32:10.676Z,32.5
2018-12-22T08:34:05.394Z,32.5
2018-12-22T08:36:05.097Z,32.5
2018-12-22T08:38:05.906Z,32.3
2018-12-22T08:40:05.619Z,32.3
2018-12-22T08:42:05.770Z,32.3
2018-12-22T08:44:05.444Z,32.3
2018-12-22T08:46:05.191Z,32.3
2018-12-22T08:48:05.069Z,32.3
2018-12-22T08:50:09.845Z,32.3
2018-12-22T08:52:08.054Z,32.5
2018-12-22T08:54:05.744Z,32.3
2018-12-22T08:56:05.452Z,32.3
2018-12-22T08:58:05.248Z,32.5
2018-12-22T09:00:05.959Z,32.3
2018-12-22T09:02:05.627Z,32.5
2018-12-22T09:04:08.385Z,32.5
2018-12-22T09:06:08.231Z,32.5
2018-12-22T09:08:05.927Z,32.5
2018-12-22T09:10:05.579Z,32.5
2018-12-22T09:12:07.776Z,32.3
2018-12-22T09:14:05.478Z,32.3
2018-12-22T09:16:05.197Z,32.3
2018-12-22T09:18:06.292Z,32.3
2018-12-22T09:20:05.986Z,32.3
2018-12-22T09:22:05.242Z,32.3
2018-12-22T09:24:05.550Z,32.3
2018-12-22T09:26:05.258Z,32.5
2018-12-22T09:28:05.541Z,32.7
2018-12-22T09:30:07.794Z,32.7
2018-12-22T09:32:08.045Z,32.8
2018-12-22T09:34:13.811Z,32.8
2018-12-22T09:36:05.588Z,32.8
2018-12-22T09:38:07.800Z,32.9
2018-12-22T09:40:05.448Z,32.9
2018-12-22T09:42:05.582Z,32.9
2018-12-22T09:44:05.270Z,32.9
2018-12-22T09:46:05.977Z,33.1
2018-12-22T09:48:05.831Z,33
2018-12-22T09:50:05.365Z,33.1
2018-12-22T09:52:10.695Z,33.2
2018-12-22T09:54:05.395Z,33
2018-12-22T09:56:05.146Z,33
2018-12-22T09:58:05.816Z,33.2
2018-12-22T10:00:05.512Z,33.2
2018-12-22T10:02:07.703Z,33.3
2018-12-22T10:04:05.919Z,33.3
2018-12-22T10:06:05.641Z,33.6
2018-12-22T10:08:05.328Z,33.5
2018-12-22T10:10:07.726Z,33.6
2018-12-22T10:12:05.170Z,33.7
2018-12-22T10:14:15.520Z,35
2018-12-22T10:16:05.873Z,35
2018-12-22T10:18:05.787Z,35
2018-12-22T10:20:05.429Z,35.2
2018-12-22T10:22:05.142Z,35.6
2018-12-22T10:24:06.004Z,36
2018-12-22T10:26:05.712Z,36.4
2018-12-22T10:28:05.467Z,36.7
2018-12-22T10:30:05.163Z,36.7
2018-12-22T10:32:05.878Z,37.1
2018-12-22T10:34:05.612Z,37.5
2018-12-22T10:36:07.880Z,38
2018-12-22T10:38:08.108Z,38.5
2018-12-22T10:40:05.772Z,38.5
2018-12-22T10:42:05.440Z,39.1
2018-12-22T10:44:05.147Z,39.2
2018-12-22T10:46:05.331Z,39.5
2018-12-22T10:48:13.575Z,39.5
2018-12-22T10:50:05.251Z,39.5
2018-12-22T10:52:16.075Z,39.6
2018-12-22T10:54:05.712Z,39.6
2018-12-22T10:56:07.922Z,39.7
2018-12-22T10:58:08.178Z,40.5
2018-12-22T11:00:05.861Z,40.3
2018-12-22T11:02:05.550Z,40.8
2018-12-22T11:04:05.722Z,41.9
2018-12-22T11:06:05.391Z,42
2018-12-22T11:08:05.159Z,42.2
2018-12-22T11:10:08.400Z,42.6
2018-12-22T11:12:05.148Z,42.7
2018-12-22T11:14:06.015Z,42.9
2018-12-22T11:16:05.947Z,43.6
2018-12-22T11:18:05.849Z,43.2
2018-12-22T11:20:13.136Z,43.6
2018-12-22T11:22:05.595Z,43.7
2018-12-22T11:24:05.259Z,43.8
2018-12-22T11:26:05.459Z,42.7
2018-12-22T11:28:07.677Z,42.6
2018-12-22T11:30:05.374Z,42.6
2018-12-22T11:32:05.190Z,42.1
2018-12-22T11:34:05.920Z,41.5
2018-12-22T11:36:08.091Z,40.9
2018-12-22T11:38:05.770Z,40.9
2018-12-22T11:40:05.569Z,40.7
2018-12-22T11:42:05.306Z,40.4
2018-12-22T11:44:05.617Z,40.4
2018-12-22T11:46:05.294Z,40.1
2018-12-22T11:48:05.999Z,39.9
2018-12-22T11:50:08.181Z,39.5
2018-12-22T11:52:05.404Z,39.5
2018-12-22T11:54:05.072Z,39.2
2018-12-22T11:56:05.704Z,39.3
2018-12-22T11:58:05.437Z,38.9
2018-12-22T12:00:05.684Z,38.8
2018-12-22T12:02:10.458Z,38.5
2018-12-22T12:04:05.132Z,38.5
2018-12-22T12:06:05.835Z,38.4
2018-12-22T12:08:08.033Z,38.4
2018-12-22T12:10:20.875Z,38.2
2018-12-22T12:12:08.323Z,38
2018-12-22T12:14:07.549Z,37.9
2018-12-22T12:16:07.776Z,37.7
2018-12-22T12:18:07.736Z,37.5
2018-12-22T12:20:05.402Z,37.6
2018-12-22T12:22:05.637Z,37.7
2018-12-22T12:24:05.459Z,37.6
2018-12-22T12:26:05.234Z,37.2
2018-12-22T12:28:05.452Z,37.3
2018-12-22T12:30:10.197Z,37.1
2018-12-22T12:32:05.932Z,37.1
2018-12-22T12:34:05.655Z,37.1
2018-12-22T12:36:05.964Z,37
2018-12-22T12:38:08.271Z,36.8
2018-12-22T12:40:08.595Z,36.7
2018-12-22T12:42:05.808Z,36.7
2018-12-22T12:44:10.587Z,36.8
2018-12-22T12:46:10.476Z,36.5
2018-12-22T12:48:05.637Z,36.5
2018-12-22T12:50:08.190Z,36.6
2018-12-22T12:52:05.897Z,36.3
2018-12-22T12:54:05.893Z,36.5
2018-12-22T12:56:06.090Z,36.4
2018-12-22T12:58:05.438Z,36.3
2018-12-22T13:00:05.165Z,36.3
2018-12-22T13:02:05.052Z,36.3
2018-12-22T13:04:06.026Z,36.2
2018-12-22T13:06:05.782Z,36.2
2018-12-22T13:08:05.468Z,36.1
2018-12-22T13:10:05.206Z,35.8
2018-12-22T13:12:05.951Z,36
2018-12-22T13:14:07.738Z,36.5
2018-12-22T13:16:05.533Z,37.7
2018-12-22T13:18:07.630Z,39.6
2018-12-22T13:20:05.323Z,39.6
2018-12-22T13:22:07.827Z,41.5
2018-12-22T13:24:05.766Z,41.4
2018-12-22T13:26:05.805Z,41.7
2018-12-22T13:28:06.482Z,41.6
2018-12-22T13:30:05.206Z,45
2018-12-22T13:32:10.692Z,45.8
2018-12-22T13:34:10.742Z,46.2
2018-12-22T13:36:05.770Z,46
2018-12-22T13:38:06.510Z,45
2018-12-22T13:40:14.576Z,44.8
2018-12-22T13:42:07.994Z,44.8
2018-12-22T13:44:13.042Z,45.8
2018-12-22T13:46:05.739Z,46
2018-12-22T13:48:11.168Z,45.2
2018-12-22T13:50:06.856Z,45.8
2018-12-22T13:52:08.520Z,47.5
2018-12-22T13:54:05.434Z,47.5
2018-12-22T13:56:05.661Z,47.5
2018-12-22T13:58:05.459Z,46.8
2018-12-22T14:00:05.507Z,46.6
2018-12-22T14:02:18.682Z,45.7
2018-12-22T14:04:05.356Z,45.7
2018-12-22T14:06:05.042Z,47
2018-12-22T14:08:08.504Z,46.6
2018-12-22T14:10:08.476Z,45.8
2018-12-22T14:12:05.605Z,46.2
2018-12-22T14:14:07.915Z,45.7
2018-12-22T14:16:05.848Z,45.7
2018-12-22T14:18:05.060Z,46.4
2018-12-22T14:20:05.811Z,45.4
2018-12-22T14:22:06.800Z,45.4
2018-12-22T14:24:05.670Z,45.7
2018-12-22T14:26:05.976Z,45.7
2018-12-22T14:28:05.831Z,44.8
2018-12-22T14:30:05.476Z,44.6
2018-12-22T14:32:05.381Z,43.8
2018-12-22T14:34:05.385Z,43.1
2018-12-22T14:36:05.179Z,43.2
2018-12-22T14:38:05.394Z,42.9
2018-12-22T14:40:05.191Z,42.3
2018-12-22T14:42:07.703Z,42.3
2018-12-22T14:44:08.333Z,40.8
2018-12-22T14:46:07.077Z,40.8
2018-12-22T14:48:06.107Z,40.1
2018-12-22T14:50:18.062Z,39.4
2018-12-22T14:52:05.430Z,39
2018-12-22T14:54:05.414Z,38.2
2018-12-22T14:56:10.677Z,37.6
2018-12-22T14:58:05.508Z,37.7
2018-12-22T15:00:08.519Z,37
2018-12-22T15:02:06.117Z,37
2018-12-22T15:04:05.490Z,37
2018-12-22T15:06:06.448Z,36.9
2018-12-22T15:08:06.058Z,36.6
2018-12-22T15:10:05.666Z,36.6
2018-12-22T15:12:05.807Z,36.5
2018-12-22T15:14:06.564Z,36.4
2018-12-22T15:16:08.516Z,36.6
2018-12-22T15:18:05.826Z,36.6
2018-12-22T15:20:15.290Z,36.7
2018-12-22T15:22:08.843Z,36.7
2018-12-22T15:24:12.380Z,36.8
2018-12-22T15:26:08.912Z,36.9
2018-12-22T15:28:09.039Z,36.9
2018-12-22T15:30:08.736Z,37.1
2018-12-22T15:32:06.460Z,37.1
2018-12-22T15:34:05.866Z,37.1
2018-12-22T15:36:05.664Z,37.2
2018-12-22T15:38:05.682Z,37.1
2018-12-22T15:40:08.591Z,37.1
2018-12-22T15:42:07.966Z,37.1
2018-12-22T15:44:05.444Z,37.1
2018-12-22T15:46:05.914Z,37
2018-12-22T15:48:06.048Z,37.2
2018-12-22T15:50:05.560Z,36.9
2018-12-22T15:52:06.131Z,36.9
2018-12-22T15:54:06.211Z,37.2
2018-12-22T15:56:05.952Z,37.1
2018-12-22T15:58:06.148Z,37
2018-12-22T16:00:05.832Z,37.1
2018-12-22T16:02:06.135Z,37
2018-12-22T16:04:06.293Z,36.9
2018-12-22T16:06:08.608Z,37
2018-12-22T16:08:06.096Z,36.8
2018-12-22T16:10:05.304Z,37.1
2018-12-22T16:12:06.035Z,37.1
2018-12-22T16:14:05.734Z,37.2
2018-12-22T16:16:05.646Z,36.9
2018-12-22T16:18:06.173Z,36.9
2018-12-22T16:20:05.720Z,36.9
2018-12-22T16:22:09.708Z,37
2018-12-22T16:24:05.919Z,36.7
2018-12-22T16:26:05.563Z,36.7
2018-12-22T16:28:05.303Z,36.8
2018-12-22T16:30:06.029Z,36.7
2018-12-22T16:32:10.803Z,36.7
2018-12-22T16:34:09.133Z,36.7
2018-12-22T16:36:05.802Z,36.8
2018-12-22T16:38:07.001Z,36.8
2018-12-22T16:40:05.763Z,36.9
2018-12-22T16:42:05.541Z,36.9
2018-12-22T16:44:05.184Z,36.8
2018-12-22T16:46:05.926Z,36.7
2018-12-22T16:48:05.621Z,36.7
2018-12-22T16:50:05.303Z,36.7
2018-12-22T16:52:06.045Z,36.6
2018-12-22T16:54:05.724Z,36.8
2018-12-22T16:56:08.006Z,36.7
2018-12-22T16:58:05.730Z,36.7
2018-12-22T17:00:05.988Z,36.7
2018-12-22T17:02:08.211Z,36.5
2018-12-22T17:04:05.925Z,36.5
2018-12-22T17:06:05.629Z,36.6
2018-12-22T17:08:06.502Z,36.6
2018-12-22T17:10:15.602Z,36.6
2018-12-22T17:12:05.762Z,36.7
2018-12-22T17:14:05.514Z,36.7
2018-12-22T17:16:05.246Z,36.5
2018-12-22T17:18:05.229Z,36.5
2018-12-22T17:20:18.599Z,36.6
2018-12-22T17:22:05.878Z,36.6
2018-12-22T17:24:05.613Z,36.6
2018-12-22T17:26:05.302Z,36.6
2018-12-22T17:28:05.573Z,36.7
2018-12-22T17:30:08.339Z,36.6
2018-12-22T17:32:05.839Z,36.7
2018-12-22T17:34:08.252Z,36.8
2018-12-22T17:36:05.470Z,36.8
2018-12-22T17:38:05.315Z,36.7
2018-12-22T17:40:16.100Z,36.7
2018-12-22T17:42:13.416Z,36.7
2018-12-22T17:44:08.288Z,36.7
2018-12-22T17:46:05.042Z,36.7
2018-12-22T17:48:08.218Z,36.7
2018-12-22T17:50:06.329Z,36.7
2018-12-22T17:52:06.025Z,36.7
2018-12-22T17:54:10.739Z,36.5
2018-12-22T17:56:05.440Z,36.4
2018-12-22T17:58:12.757Z,36.6
2018-12-22T18:00:05.445Z,36.6
2018-12-22T18:02:05.322Z,36.4
2018-12-22T18:04:08.523Z,36.3
2018-12-22T18:06:07.806Z,36.4
2018-12-22T18:08:05.483Z,36.4
2018-12-22T18:10:05.152Z,36.5
2018-12-22T18:12:21.023Z,36.6
2018-12-22T18:14:05.722Z,36.4
2018-12-22T18:16:05.451Z,36.3
2018-12-22T18:18:08.445Z,36.6
2018-12-22T18:20:05.140Z,36.6
2018-12-22T18:22:05.836Z,36.6
2018-12-22T18:24:05.533Z,36.5
2018-12-22T18:26:07.783Z,36.3
2018-12-22T18:28:08.038Z,36.7
2018-12-22T18:30:05.743Z,36.4
2018-12-22T18:32:05.433Z,36.4
2018-12-22T18:34:05.232Z,36.4
2018-12-22T18:36:05.981Z,36.4
2018-12-22T18:38:05.316Z,36.5
2018-12-22T18:40:05.602Z,36.4
2018-12-22T18:42:05.309Z,36.4
2018-12-22T18:44:05.988Z,36.4
2018-12-22T18:46:05.734Z,36.4
2018-12-22T18:48:07.915Z,36.4
2018-12-22T18:50:05.664Z,36.4
2018-12-22T18:52:05.547Z,36.3
2018-12-22T18:54:05.250Z,36.4
2018-12-22T18:56:05.937Z,36.3
2018-12-22T18:58:07.705Z,36.3
2018-12-22T19:00:05.540Z,36.3
2018-12-22T19:02:05.233Z,36.5
2018-12-22T19:04:05.909Z,36.4
2018-12-22T19:06:05.689Z,36.3
2018-12-22T19:08:05.425Z,36.3
2018-12-22T19:10:05.794Z,36.3
2018-12-22T19:12:08.017Z,36.3
2018-12-22T19:14:05.711Z,36.3
2018-12-22T19:16:07.975Z,36.1
2018-12-22T19:18:05.385Z,36.3
2018-12-22T19:20:07.644Z,36.2
2018-12-22T19:22:05.335Z,36.4
2018-12-22T19:24:05.016Z,36.3
2018-12-22T19:26:05.660Z,36.3
2018-12-22T19:28:05.366Z,36.3
2018-12-22T19:30:04.990Z,36.3
2018-12-22T19:32:05.612Z,36.3
2018-12-22T19:34:05.325Z,36.1
2018-12-22T19:36:04.973Z,36
2018-12-22T19:38:08.300Z,36.2
2018-12-22T19:40:06.051Z,36.2
2018-12-22T19:42:05.260Z,36.2
2018-12-22T19:44:08.797Z,36.2
2018-12-22T19:46:04.991Z,36.2
2018-12-22T19:48:05.633Z,36.2
2018-12-22T19:50:05.315Z,36.2
2018-12-22T19:52:04.992Z,36.2
2018-12-22T19:54:08.298Z,36.2
2018-12-22T19:56:05.990Z,36.2
2018-12-22T19:58:08.202Z,35.9
2018-12-22T20:00:08.429Z,36.2
2018-12-22T20:02:05.125Z,35.9
2018-12-22T20:04:05.829Z,36
2018-12-22T20:06:05.775Z,36
2018-12-22T20:08:06.122Z,36
2018-12-22T20:10:10.912Z,36
2018-12-22T20:12:05.427Z,35.9
2018-12-22T20:14:05.176Z,36
2018-12-22T20:16:09.679Z,36
2018-12-22T20:18:05.695Z,36.1
2018-12-22T20:20:05.414Z,36.1
2018-12-22T20:22:05.158Z,36.1
2018-12-22T20:24:05.846Z,36
2018-12-22T20:26:05.718Z,36
2018-12-22T20:28:13.616Z,35.9
2018-12-22T20:30:05.346Z,36.1
2018-12-22T20:32:04.991Z,36
2018-12-22T20:34:11.613Z,35.8
2018-12-22T20:36:05.398Z,36.1
2018-12-22T20:38:07.602Z,35.9
2018-12-22T20:40:05.903Z,35.9
2018-12-22T20:42:05.899Z,36
2018-12-22T20:44:06.261Z,35.8
2018-12-22T20:46:08.060Z,35.9
2018-12-22T20:48:14.093Z,35.8
2018-12-22T20:50:08.062Z,35.8
2018-12-22T20:52:10.303Z,35.8
2018-12-22T20:54:05.665Z,35.8
2018-12-22T20:56:10.891Z,35.8
2018-12-22T20:58:05.860Z,35.8
2018-12-22T21:00:05.616Z,35.8
2018-12-22T21:02:06.071Z,35.8
2018-12-22T21:04:06.113Z,35.8
2018-12-22T21:06:05.267Z,35.7
2018-12-22T21:08:13.749Z,35.8
2018-12-22T21:10:08.765Z,35.8
2018-12-22T21:12:06.018Z,35.5
2018-12-22T21:14:05.539Z,35.7
2018-12-22T21:16:16.154Z,35.7
2018-12-22T21:18:06.038Z,35.7
2018-12-22T21:20:08.699Z,35.8
2018-12-22T21:22:05.819Z,35.8
2018-12-22T21:24:08.247Z,35.8
2018-12-22T21:26:05.929Z,35.9
2018-12-22T21:28:05.638Z,35.7
2018-12-22T21:30:05.275Z,35.7
2018-12-22T21:32:05.478Z,35.8
2018-12-22T21:34:05.210Z,35.8
2018-12-22T21:36:05.859Z,35.7
2018-12-22T21:38:06.032Z,35.7
2018-12-22T21:40:05.946Z,35.8
2018-12-22T21:42:05.859Z,35.6
2018-12-22T21:44:05.065Z,35.6
2018-12-22T21:46:05.823Z,35.5
2018-12-22T21:48:05.513Z,35.5
2018-12-22T21:50:05.161Z,35.4
2018-12-22T21:52:08.348Z,35.5
2018-12-22T21:54:05.607Z,35.5
2018-12-22T21:56:05.399Z,35.5
2018-12-22T21:58:05.253Z,35.4
2018-12-22T22:00:06.059Z,35.5
2018-12-22T22:02:05.762Z,35.3
2018-12-22T22:04:07.725Z,35.5
2018-12-22T22:06:10.467Z,35.4
2018-12-22T22:08:05.163Z,35.4
2018-12-22T22:10:05.823Z,35.4
2018-12-22T22:12:05.593Z,35.5
2018-12-22T22:14:05.249Z,35.5
2018-12-22T22:16:06.033Z,35.3
2018-12-22T22:18:08.410Z,35.5
2018-12-22T22:20:08.575Z,35.6
2018-12-22T22:22:05.301Z,35.3
2018-12-22T22:24:08.533Z,35.5
2018-12-22T22:26:05.233Z,35.3
2018-12-22T22:28:06.146Z,35.5
2018-12-22T22:30:05.904Z,35.5
2018-12-22T22:32:05.584Z,35.5
2018-12-22T22:34:05.316Z,35.3
2018-12-22T22:36:06.017Z,35.6
2018-12-22T22:38:05.734Z,35.2
2018-12-22T22:40:08.506Z,35.2
2018-12-22T22:42:05.254Z,35.2
2018-12-22T22:44:05.517Z,35.3
2018-12-22T22:46:05.304Z,35.3
2018-12-22T22:48:08.489Z,35.3
2018-12-22T22:50:10.502Z,35.3
2018-12-22T22:52:05.199Z,35.3
2018-12-22T22:54:05.842Z,35.2
2018-12-22T22:56:05.512Z,35.2
2018-12-22T22:58:05.750Z,35.3
2018-12-22T23:00:06.447Z,35
2018-12-22T23:02:05.228Z,35.3
2018-12-22T23:04:06.178Z,35
2018-12-22T23:06:15.645Z,34.9
2018-12-22T23:08:05.394Z,34.9
2018-12-22T23:10:10.232Z,34.9
2018-12-22T23:12:08.449Z,35.1
2018-12-22T23:14:07.660Z,35
2018-12-22T23:16:05.442Z,35
2018-12-22T23:18:05.289Z,35.2
2018-12-22T23:20:06.027Z,35
2018-12-22T23:22:05.805Z,35.1
2018-12-22T23:24:08.014Z,35
2018-12-22T23:26:05.694Z,34.9
2018-12-22T23:28:07.909Z,34.8
2018-12-22T23:30:05.796Z,34.8
2018-12-22T23:32:08.012Z,34.8
2018-12-22T23:34:05.303Z,34.8
2018-12-22T23:36:05.981Z,34.9
2018-12-22T23:38:05.718Z,34.9
2018-12-22T23:40:05.693Z,34.9
2018-12-22T23:42:05.458Z,34.7
2018-12-22T23:44:05.527Z,34.8
2018-12-22T23:46:05.260Z,34.9
2018-12-22T23:48:05.949Z,34.8
2018-12-22T23:50:08.234Z,34.6
2018-12-22T23:52:05.187Z,34.7
2018-12-22T23:54:05.593Z,34.8
2018-12-22T23:56:05.294Z,34.9
2018-12-22T23:58:05.340Z,34.9
